A80 TRACON Summary / KATL TAF
ATL TRACON Summary:
High pressure will continue to build in from the north. Expect VFR conditions with the ATL TRACON under mostly clear skies. Surface winds will be mostly from the northwest near 5kts. No significant flight hazards are expected in the TRACON Airspace.

Updated:10/22/2014 7:46 PM
ATL Terminal Aerodrome Forecast:

FTUS80 KATL 230539
KATL 230538Z 2306/2412 33006KT P6SM SKC
     FM231700 32007KT P6SM SKC
     FM240100 32003KT P6SM SCT250
ATL TRACON Area Remark:
NONE.
Convective Gate Forecast / Collaborative Convective Forecast Product / Vertical Wind Profile
Convective Gate Forecast
SIGMETS/ Southeast Radar & Satellite Loops (click on image to enlarge)

Southeast Radar Loop

 



USA.gov is the U.S. government's official web portal to all federal, state and local government web resources and services.